This is the latest recevied weather packets stored in our database for station/object AA7VG. If no packets are shown the sender has not sent any weather packets the latest 10 day(s).
| Time | Temp. | Humidity | Pressure | Rain* | Wind** | Luminosity | Snow |
|---|---|---|---|---|---|---|---|
| 1778101728 | 17.78° C | 26% | 1012.8 hPa | 0 mm | - | - | - |
| 1778101425 | 18.33° C | 24% | 1012.9 hPa | 0 mm | - | - | - |
| 1778101122 | 18.33° C | 24% | 1012.8 hPa | 0 mm | - | - | - |
| 1778100818 | 18.33° C | 24% | 1013.3 hPa | 0 mm | - | - | - |
| 1778100514 | 19.44° C | 22% | 1013.3 hPa | 0 mm | - | - | - |
| 1778100212 | 17.78° C | 23% | 1013.4 hPa | 0 mm | - | - | - |
| 1778099910 | 17.78° C | 23% | 1013.6 hPa | 0 mm | - | - | - |
| 1778099606 | 17.22° C | 24% | 1013.5 hPa | 0 mm | - | - | - |
| 1778099303 | 16.67° C | 24% | 1013.7 hPa | 0 mm | - | - | - |
| 1778099001 | 16.67° C | 26% | 1013.8 hPa | 0 mm | - | - | - |
| 1778098697 | 17.22° C | 23% | 1013.6 hPa | 0 mm | - | - | - |
| 1778098394 | 17.22° C | 23% | 1013.6 hPa | 0 mm | - | - | - |
| 1778098091 | 16.67° C | 23% | 1013.9 hPa | 0 mm | - | - | - |
| 1778097787 | 17.22° C | 24% | 1013.9 hPa | 0 mm | - | - | - |
| 1778097483 | 15.56° C | 25% | 1014.2 hPa | 0 mm | - | - | - |
| 1778097181 | 15.56° C | 23% | 1014 hPa | 0 mm | - | - | - |
| 1778096878 | 15.56° C | 23% | 1014.2 hPa | 0 mm | - | - | - |
| 1778096574 | 16.11° C | 22% | 1014.2 hPa | 0 mm | - | - | - |
| 1778096272 | 15° C | 25% | 1014.6 hPa | 0 mm | - | - | - |
| 1778095968 | 15° C | 24% | 1015.1 hPa | 0 mm | - | - | - |
| 1778095664 | 15° C | 23% | 1014.7 hPa | 0 mm | - | - | - |
| 1778095362 | 15° C | 23% | 1014.8 hPa | 0 mm | - | - | - |
| 1778095058 | 16.67° C | 21% | 1015 hPa | 0 mm | - | - | - |
| 1778094754 | 15.56° C | 23% | 1014.8 hPa | 0 mm | - | - | - |
| 1778094452 | 15.56° C | 21% | 1014.8 hPa | 0 mm | - | - | - |
* Rain latest hour (hover to see other rain measurements)
** Current wind speed in m/s (hover to see current wind gust speed)